sensor_id;sensor_type;location;lat;lon;timestamp;pressure;altitude;pressure_sealevel;temperature;humidity
54512;BME280;40419;47.438;19.026;2023-04-09T00:01:58;100453.88;;;3.27;100.00
54512;BME280;40419;47.438;19.026;2023-04-09T00:04:23;100454.16;;;3.05;100.00
54512;BME280;40419;47.438;19.026;2023-04-09T00:06:49;100455.59;;;3.09;100.00
54512;BME280;40419;47.438;19.026;2023-04-09T00:09:15;100456.72;;;3.26;100.00
54512;BME280;40419;47.438;19.026;2023-04-09T00:11:40;100457.56;;;3.26;100.00
54512;BME280;40419;47.438;19.026;2023-04-09T00:14:08;100458.41;;;3.27;100.00
54512;BME280;40419;47.438;19.026;2023-04-09T00:16:36;100456.56;;;3.27;100.00
54512;BME280;40419;47.438;19.026;2023-04-09T00:19:04;100449.13;;;3.31;100.00
54512;BME280;40419;47.438;19.026;2023-04-09T00:21:35;100448.13;;;3.22;100.00
54512;BME280;40419;47.438;19.026;2023-04-09T00:24:03;100450.25;;;3.28;100.00
54512;BME280;40419;47.438;19.026;2023-04-09T00:26:33;100455.59;;;3.28;100.00
54512;BME280;40419;47.438;19.026;2023-04-09T00:29:04;100453.63;;;3.21;100.00
54512;BME280;40419;47.438;19.026;2023-04-09T00:31:31;100448.81;;;3.24;100.00
54512;BME280;40419;47.438;19.026;2023-04-09T00:34:02;100452.06;;;3.08;100.00
54512;BME280;40419;47.438;19.026;2023-04-09T00:36:30;100446.00;;;3.16;100.00
54512;BME280;40419;47.438;19.026;2023-04-09T00:38:55;100451.34;;;3.06;100.00
54512;BME280;40419;47.438;19.026;2023-04-09T00:41:21;100454.47;;;3.11;100.00
54512;BME280;40419;47.438;19.026;2023-04-09T00:43:49;100441.78;;;3.04;100.00
54512;BME280;40419;47.438;19.026;2023-04-09T00:46:16;100440.38;;;2.99;100.00
54512;BME280;40419;47.438;19.026;2023-04-09T00:48:49;100446.41;;;2.92;100.00
54512;BME280;40419;47.438;19.026;2023-04-09T00:51:18;100442.03;;;2.91;100.00
54512;BME280;40419;47.438;19.026;2023-04-09T00:53:48;100439.38;;;2.91;100.00
54512;BME280;40419;47.438;19.026;2023-04-09T00:56:17;100446.56;;;2.90;100.00
54512;BME280;40419;47.438;19.026;2023-04-09T00:58:46;100439.66;;;2.88;100.00
54512;BME280;40419;47.438;19.026;2023-04-09T01:01:16;100437.53;;;2.81;100.00
54512;BME280;40419;47.438;19.026;2023-04-09T01:03:44;100445.97;;;2.87;100.00
54512;BME280;40419;47.438;19.026;2023-04-09T01:09:29;100449.38;;;2.98;100.00
54512;BME280;40419;47.438;19.026;2023-04-09T01:12:20;100443.47;;;2.95;100.00
54512;BME280;40419;47.438;19.026;2023-04-09T01:15:09;100439.94;;;2.84;100.00
54512;BME280;40419;47.438;19.026;2023-04-09T01:18:11;100439.94;;;2.84;100.00
54512;BME280;40419;47.438;19.026;2023-04-09T01:20:42;100443.16;;;2.88;100.00
54512;BME280;40419;47.438;19.026;2023-04-09T01:23:22;100443.19;;;2.98;100.00
54512;BME280;40419;47.438;19.026;2023-04-09T01:26:07;100443.59;;;2.93;100.00
54512;BME280;40419;47.438;19.026;2023-04-09T01:28:52;100447.13;;;2.94;100.00
54512;BME280;40419;47.438;19.026;2023-04-09T01:31:20;100440.94;;;2.93;100.00
54512;BME280;40419;47.438;19.026;2023-04-09T01:33:50;100440.09;;;3.03;100.00
54512;BME280;40419;47.438;19.026;2023-04-09T01:36:17;100449.09;;;3.01;100.00
54512;BME280;40419;47.438;19.026;2023-04-09T01:38:47;100445.72;;;2.99;100.00
54512;BME280;40419;47.438;19.026;2023-04-09T01:41:21;100450.78;;;3.03;100.00
54512;BME280;40419;47.438;19.026;2023-04-09T01:43:49;100447.28;;;3.02;100.00
54512;BME280;40419;47.438;19.026;2023-04-09T01:46:18;100448.66;;;3.06;100.00
54512;BME280;40419;47.438;19.026;2023-04-09T01:48:45;100446.72;;;3.08;100.00
54512;BME280;40419;47.438;19.026;2023-04-09T01:51:14;100444.03;;;3.08;100.00
54512;BME280;40419;47.438;19.026;2023-04-09T01:53:42;100444.59;;;3.12;100.00
54512;BME280;40419;47.438;19.026;2023-04-09T01:56:10;100437.41;;;3.03;100.00
54512;BME280;40419;47.438;19.026;2023-04-09T01:58:36;100442.78;;;3.03;100.00
54512;BME280;40419;47.438;19.026;2023-04-09T02:01:11;100441.94;;;3.02;100.00
54512;BME280;40419;47.438;19.026;2023-04-09T02:03:53;100451.66;;;3.13;100.00
54512;BME280;40419;47.438;19.026;2023-04-09T02:06:46;100447.13;;;3.13;100.00
54512;BME280;40419;47.438;19.026;2023-04-09T02:09:15;100445.44;;;3.12;100.00
54512;BME280;40419;47.438;19.026;2023-04-09T02:11:47;100440.81;;;3.14;100.00
54512;BME280;40419;47.438;19.026;2023-04-09T02:14:15;100446.88;;;3.07;100.00
54512;BME280;40419;47.438;19.026;2023-04-09T02:16:41;100446.56;;;2.90;100.00
54512;BME280;40419;47.438;19.026;2023-04-09T02:19:10;100434.72;;;2.93;100.00
54512;BME280;40419;47.438;19.026;2023-04-09T02:21:35;100439.34;;;2.71;100.00
54512;BME280;40419;47.438;19.026;2023-04-09T02:24:04;100438.66;;;2.79;100.00
54512;BME280;40419;47.438;19.026;2023-04-09T02:26:32;100436.09;;;2.77;100.00
54512;BME280;40419;47.438;19.026;2023-04-09T02:28:58;100437.81;;;2.78;100.00
54512;BME280;40419;47.438;19.026;2023-04-09T02:31:25;100433.00;;;2.72;100.00
54512;BME280;40419;47.438;19.026;2023-04-09T02:33:51;100434.84;;;2.91;100.00
54512;BME280;40419;47.438;19.026;2023-04-09T02:36:18;100434.84;;;2.91;100.00
54512;BME280;40419;47.438;19.026;2023-04-09T02:38:44;100428.78;;;2.70;100.00
54512;BME280;40419;47.438;19.026;2023-04-09T02:41:16;100438.06;;;2.65;100.00
54512;BME280;40419;47.438;19.026;2023-04-09T02:43:44;100440.63;;;2.77;100.00
54512;BME280;40419;47.438;19.026;2023-04-09T02:46:12;100436.81;;;2.70;100.00
54512;BME280;40419;47.438;19.026;2023-04-09T02:48:39;100435.38;;;2.65;100.00
54512;BME280;40419;47.438;19.026;2023-04-09T02:51:05;100435.22;;;2.57;100.00
54512;BME280;40419;47.438;19.026;2023-04-09T02:53:33;100436.88;;;2.48;100.00
54512;BME280;40419;47.438;19.026;2023-04-09T02:56:01;100421.31;;;2.54;100.00
54512;BME280;40419;47.438;19.026;2023-04-09T02:58:27;100429.75;;;2.59;100.00
54512;BME280;40419;47.438;19.026;2023-04-09T03:00:55;100422.44;;;2.61;100.00
54512;BME280;40419;47.438;19.026;2023-04-09T03:03:20;100429.59;;;2.60;100.00
54512;BME280;40419;47.438;19.026;2023-04-09T03:05:49;100438.47;;;2.61;100.00
54512;BME280;40419;47.438;19.026;2023-04-09T03:08:14;100433.78;;;2.43;100.00
54512;BME280;40419;47.438;19.026;2023-04-09T03:10:40;100431.25;;;2.42;100.00
54512;BME280;40419;47.438;19.026;2023-04-09T03:13:05;100424.50;;;2.47;100.00
54512;BME280;40419;47.438;19.026;2023-04-09T03:15:35;100442.09;;;2.09;100.00
54512;BME280;40419;47.438;19.026;2023-04-09T03:18:07;100425.72;;;2.24;100.00
54512;BME280;40419;47.438;19.026;2023-04-09T03:20:36;100431.94;;;2.34;100.00
54512;BME280;40419;47.438;19.026;2023-04-09T03:23:04;100440.78;;;2.35;100.00
54512;BME280;40419;47.438;19.026;2023-04-09T03:25:41;100429.25;;;2.34;100.00
54512;BME280;40419;47.438;19.026;2023-04-09T03:28:18;100431.22;;;2.32;100.00
54512;BME280;40419;47.438;19.026;2023-04-09T03:30:48;100434.88;;;2.31;100.00
54512;BME280;40419;47.438;19.026;2023-04-09T03:33:14;100441.38;;;2.07;100.00
54512;BME280;40419;47.438;19.026;2023-04-09T03:36:00;100432.16;;;2.21;100.00
54512;BME280;40419;47.438;19.026;2023-04-09T03:38:42;100433.75;;;2.34;100.00
54512;BME280;40419;47.438;19.026;2023-04-09T03:41:20;100436.00;;;2.38;100.00
54512;BME280;40419;47.438;19.026;2023-04-09T03:43:50;100441.06;;;2.32;100.00
54512;BME280;40419;47.438;19.026;2023-04-09T03:46:21;100437.28;;;2.34;100.00
54512;BME280;40419;47.438;19.026;2023-04-09T03:48:49;100441.34;;;2.38;100.00
54512;BME280;40419;47.438;19.026;2023-04-09T03:51:18;100436.47;;;2.43;100.00
54512;BME280;40419;47.438;19.026;2023-04-09T03:53:49;100446.22;;;2.64;100.00
54512;BME280;40419;47.438;19.026;2023-04-09T03:56:15;100445.38;;;2.63;100.00
54512;BME280;40419;47.438;19.026;2023-04-09T03:58:41;100441.72;;;2.74;100.00
54512;BME280;40419;47.438;19.026;2023-04-09T04:01:11;100440.63;;;2.77;100.00
54512;BME280;40419;47.438;19.026;2023-04-09T04:03:50;100452.16;;;2.68;100.00
54512;BME280;40419;47.438;19.026;2023-04-09T04:06:21;100442.31;;;2.78;100.00
54512;BME280;40419;47.438;19.026;2023-04-09T04:09:04;100443.28;;;2.77;100.00
54512;BME280;40419;47.438;19.026;2023-04-09T04:11:40;100445.28;;;2.84;100.00
54512;BME280;40419;47.438;19.026;2023-04-09T04:14:09;100454.00;;;2.87;100.00
54512;BME280;40419;47.438;19.026;2023-04-09T04:16:34;100461.59;;;2.81;100.00
54512;BME280;40419;47.438;19.026;2023-04-09T04:19:04;100449.94;;;2.82;100.00
54512;BME280;40419;47.438;19.026;2023-04-09T04:21:37;100453.25;;;2.75;100.00
54512;BME280;40419;47.438;19.026;2023-04-09T04:24:02;100452.28;;;2.76;100.00
54512;BME280;40419;47.438;19.026;2023-04-09T04:26:29;100456.13;;;2.83;100.00
54512;BME280;40419;47.438;19.026;2023-04-09T04:28:56;100458.38;;;2.88;100.00
54512;BME280;40419;47.438;19.026;2023-04-09T04:31:52;100463.31;;;2.92;100.00
54512;BME280;40419;47.438;19.026;2023-04-09T04:34:21;100465.00;;;3.03;100.00
54512;BME280;40419;47.438;19.026;2023-04-09T04:36:55;100469.09;;;3.07;100.00
54512;BME280;40419;47.438;19.026;2023-04-09T04:39:21;100471.78;;;3.07;100.00
54512;BME280;40419;47.438;19.026;2023-04-09T04:42:09;100465.16;;;3.11;100.00
54512;BME280;40419;47.438;19.026;2023-04-09T04:44:37;100467.44;;;3.16;100.00
54512;BME280;40419;47.438;19.026;2023-04-09T04:47:15;100473.50;;;3.28;100.00
54512;BME280;40419;47.438;19.026;2023-04-09T04:49:43;100467.84;;;3.21;100.00
54512;BME280;40419;47.438;19.026;2023-04-09T04:52:11;100472.06;;;3.24;100.00
54512;BME280;40419;47.438;19.026;2023-04-09T04:54:42;100473.50;;;3.28;100.00
54512;BME280;40419;47.438;19.026;2023-04-09T04:57:15;100472.75;;;3.06;100.00
54512;BME280;40419;47.438;19.026;2023-04-09T04:59:41;100474.59;;;3.15;100.00
54512;BME280;40419;47.438;19.026;2023-04-09T05:02:09;100469.69;;;3.21;100.00
54512;BME280;40419;47.438;19.026;2023-04-09T05:04:50;100477.56;;;3.22;100.00
54512;BME280;40419;47.438;19.026;2023-04-09T05:07:24;100472.06;;;3.24;100.00
54512;BME280;40419;47.438;19.026;2023-04-09T05:09:53;100479.97;;;3.25;100.00
54512;BME280;40419;47.438;19.026;2023-04-09T05:12:18;100477.72;;;3.21;100.00
54512;BME280;40419;47.438;19.026;2023-04-09T05:14:49;100479.53;;;3.30;100.00
54512;BME280;40419;47.438;19.026;2023-04-09T05:17:14;100479.13;;;3.25;100.00
54512;BME280;40419;47.438;19.026;2023-04-09T05:19:50;100487.16;;;3.25;100.00
54512;BME280;40419;47.438;19.026;2023-04-09T05:22:21;100486.03;;;3.17;100.00
54512;BME280;40419;47.438;19.026;2023-04-09T05:24:49;100481.06;;;3.23;100.00
54512;BME280;40419;47.438;19.026;2023-04-09T05:27:16;100490.81;;;3.24;100.00
54512;BME280;40419;47.438;19.026;2023-04-09T05:29:48;100491.34;;;3.27;100.00
54512;BME280;40419;47.438;19.026;2023-04-09T05:32:18;100485.19;;;3.27;100.00
54512;BME280;40419;47.438;19.026;2023-04-09T05:34:44;100490.66;;;3.35;100.00
54512;BME280;40419;47.438;19.026;2023-04-09T05:37:12;100507.16;;;3.40;100.00
54512;BME280;40419;47.438;19.026;2023-04-09T05:39:48;100499.84;;;3.52;100.00
54512;BME280;40419;47.438;19.026;2023-04-09T05:42:15;100492.94;;;3.49;100.00
54512;BME280;40419;47.438;19.026;2023-04-09T05:45:03;100490.81;;;3.63;100.00
54512;BME280;40419;47.438;19.026;2023-04-09T05:47:31;100490.94;;;3.71;100.00
54512;BME280;40419;47.438;19.026;2023-04-09T05:50:22;100500.66;;;3.72;100.00
54512;BME280;40419;47.438;19.026;2023-04-09T05:52:53;100496.28;;;3.71;100.00
54512;BME280;40419;47.438;19.026;2023-04-09T05:55:20;100507.00;;;3.71;100.00
54512;BME280;40419;47.438;19.026;2023-04-09T05:57:54;100502.38;;;3.73;100.00
54512;BME280;40419;47.438;19.026;2023-04-09T06:00:19;100516.84;;;3.80;100.00
54512;BME280;40419;47.438;19.026;2023-04-09T06:02:48;100513.88;;;3.83;100.00
54512;BME280;40419;47.438;19.026;2023-04-09T06:05:17;100507.53;;;3.84;100.00
54512;BME280;40419;47.438;19.026;2023-04-09T06:07:45;100515.28;;;3.87;100.00
54512;BME280;40419;47.438;19.026;2023-04-09T06:10:16;100513.19;;;3.91;100.00
54512;BME280;40419;47.438;19.026;2023-04-09T06:12:42;100517.84;;;3.89;100.00
54512;BME280;40419;47.438;19.026;2023-04-09T06:15:08;100512.75;;;3.96;100.00
54512;BME280;40419;47.438;19.026;2023-04-09T06:17:36;100518.66;;;3.99;100.00
54512;BME280;40419;47.438;19.026;2023-04-09T06:20:04;100513.03;;;4.02;100.00
54512;BME280;40419;47.438;19.026;2023-04-09T06:22:32;100513.84;;;4.03;100.00
54512;BME280;40419;47.438;19.026;2023-04-09T06:24:58;100516.25;;;4.06;100.00
54512;BME280;40419;47.438;19.026;2023-04-09T06:27:24;100515.94;;;4.09;100.00
54512;BME280;40419;47.438;19.026;2023-04-09T06:29:52;100515.66;;;4.12;100.00
54512;BME280;40419;47.438;19.026;2023-04-09T06:32:19;100516.09;;;4.17;100.00
54512;BME280;40419;47.438;19.026;2023-04-09T06:34:45;100523.47;;;3.96;100.00
54512;BME280;40419;47.438;19.026;2023-04-09T06:37:11;100520.50;;;3.89;100.00
54512;BME280;40419;47.438;19.026;2023-04-09T06:39:39;100514.13;;;4.10;100.00
54512;BME280;40419;47.438;19.026;2023-04-09T06:42:05;100513.69;;;4.14;100.00
54512;BME280;40419;47.438;19.026;2023-04-09T06:44:38;100513.81;;;4.22;100.00
54512;BME280;40419;47.438;19.026;2023-04-09T06:47:06;100508.22;;;4.43;100.00
54512;BME280;40419;47.438;19.026;2023-04-09T06:49:33;100513.66;;;4.61;100.00
54512;BME280;40419;47.438;19.026;2023-04-09T06:51:58;100515.66;;;4.59;100.00
54512;BME280;40419;47.438;19.026;2023-04-09T06:54:27;100523.88;;;4.48;100.00
54512;BME280;40419;47.438;19.026;2023-04-09T06:56:54;100522.59;;;4.52;100.00
54512;BME280;40419;47.438;19.026;2023-04-09T06:59:20;100523.28;;;4.54;100.00
54512;BME280;40419;47.438;19.026;2023-04-09T07:01:46;100528.91;;;4.61;100.00
54512;BME280;40419;47.438;19.026;2023-04-09T07:04:16;100542.41;;;4.79;100.00
54512;BME280;40419;47.438;19.026;2023-04-09T07:06:44;100529.78;;;4.89;100.00
54512;BME280;40419;47.438;19.026;2023-04-09T07:09:12;100531.88;;;4.95;100.00
54512;BME280;40419;47.438;19.026;2023-04-09T07:11:40;100526.56;;;5.04;100.00
54512;BME280;40419;47.438;19.026;2023-04-09T07:14:05;100531.41;;;5.00;100.00
54512;BME280;40419;47.438;19.026;2023-04-09T07:16:31;100529.97;;;4.78;100.00
54512;BME280;40419;47.438;19.026;2023-04-09T07:18:59;100541.41;;;5.08;100.00
54512;BME280;40419;47.438;19.026;2023-04-09T07:21:24;100554.06;;;5.15;100.00
54512;BME280;40419;47.438;19.026;2023-04-09T07:23:52;100554.59;;;5.19;100.00
54512;BME280;40419;47.438;19.026;2023-04-09T07:26:26;100551.06;;;5.19;100.00
54512;BME280;40419;47.438;19.026;2023-04-09T07:28:53;100555.31;;;5.21;100.00
54512;BME280;40419;47.438;19.026;2023-04-09T07:31:22;100561.13;;;5.17;100.00
54512;BME280;40419;47.438;19.026;2023-04-09T07:33:48;100558.06;;;5.29;100.00
54512;BME280;40419;47.438;19.026;2023-04-09T07:36:13;100562.75;;;5.27;100.00
54512;BME280;40419;47.438;19.026;2023-04-09T07:38:41;100551.19;;;5.27;100.00
54512;BME280;40419;47.438;19.026;2023-04-09T07:41:14;100556.59;;;5.17;100.00
54512;BME280;40419;47.438;19.026;2023-04-09T07:43:42;100559.66;;;5.22;100.00
54512;BME280;40419;47.438;19.026;2023-04-09T07:46:08;100560.44;;;5.32;100.00
54512;BME280;40419;47.438;19.026;2023-04-09T07:48:37;100553.13;;;5.53;100.00
54512;BME280;40419;47.438;19.026;2023-04-09T07:51:02;100561.91;;;5.81;100.00
54512;BME280;40419;47.438;19.026;2023-04-09T07:53:31;100568.19;;;5.99;100.00
54512;BME280;40419;47.438;19.026;2023-04-09T07:56:02;100565.34;;;6.01;100.00
54512;BME280;40419;47.438;19.026;2023-04-09T07:58:28;100568.09;;;6.62;100.00
54512;BME280;40419;47.438;19.026;2023-04-09T08:00:55;100564.47;;;6.45;100.00
54512;BME280;40419;47.438;19.026;2023-04-09T08:03:21;100571.19;;;6.23;100.00
54512;BME280;40419;47.438;19.026;2023-04-09T08:05:54;100564.00;;;6.57;100.00
54512;BME280;40419;47.438;19.026;2023-04-09T08:08:19;100568.38;;;6.32;100.00
54512;BME280;40419;47.438;19.026;2023-04-09T08:10:48;100558.13;;;6.54;100.00
54512;BME280;40419;47.438;19.026;2023-04-09T08:13:16;100555.53;;;6.70;100.00
54512;BME280;40419;47.438;19.026;2023-04-09T08:15:41;100556.53;;;6.78;100.00
54512;BME280;40419;47.438;19.026;2023-04-09T08:18:09;100569.84;;;6.79;100.00
54512;BME280;40419;47.438;19.026;2023-04-09T08:20:37;100564.69;;;6.60;100.00
54512;BME280;40419;47.438;19.026;2023-04-09T08:23:11;100561.50;;;6.64;100.00
54512;BME280;40419;47.438;19.026;2023-04-09T08:25:39;100573.91;;;6.83;100.00
54512;BME280;40419;47.438;19.026;2023-04-09T08:28:05;100570.97;;;7.03;100.00
54512;BME280;40419;47.438;19.026;2023-04-09T08:30:32;100561.78;;;7.30;100.00
54512;BME280;40419;47.438;19.026;2023-04-09T08:33:02;100580.75;;;6.69;100.00
54512;BME280;40419;47.438;19.026;2023-04-09T08:35:29;100571.13;;;7.09;100.00
54512;BME280;40419;47.438;19.026;2023-04-09T08:37:55;100577.66;;;7.50;100.00
54512;BME280;40419;47.438;19.026;2023-04-09T08:40:23;100582.78;;;7.10;100.00
54512;BME280;40419;47.438;19.026;2023-04-09T08:42:53;100581.50;;;6.88;100.00
54512;BME280;40419;47.438;19.026;2023-04-09T08:45:24;100582.72;;;7.02;100.00
54512;BME280;40419;47.438;19.026;2023-04-09T08:47:50;100589.25;;;6.91;100.00
54512;BME280;40419;47.438;19.026;2023-04-09T08:50:18;100588.91;;;6.86;99.44
54512;BME280;40419;47.438;19.026;2023-04-09T08:52:46;100591.69;;;7.10;95.36
54512;BME280;40419;47.438;19.026;2023-04-09T08:55:12;100593.56;;;6.84;97.81
54512;BME280;40419;47.438;19.026;2023-04-09T08:57:40;100587.56;;;7.33;100.00
54512;BME280;40419;47.438;19.026;2023-04-09T09:00:09;100595.31;;;7.36;100.00
54512;BME280;40419;47.438;19.026;2023-04-09T09:02:34;100596.94;;;7.79;100.00
54512;BME280;40419;47.438;19.026;2023-04-09T09:05:00;100583.34;;;7.30;99.40
54512;BME280;40419;47.438;19.026;2023-04-09T09:07:33;100581.69;;;7.37;100.00
54512;BME280;40419;47.438;19.026;2023-04-09T09:10:01;100596.88;;;7.47;100.00
54512;BME280;40419;47.438;19.026;2023-04-09T09:12:39;100604.94;;;7.47;100.00
54512;BME280;40419;47.438;19.026;2023-04-09T09:15:27;100598.03;;;6.93;100.00
54512;BME280;40419;47.438;19.026;2023-04-09T09:17:55;100610.47;;;6.94;100.00
54512;BME280;40419;47.438;19.026;2023-04-09T09:20:24;100601.84;;;7.25;100.00
54512;BME280;40419;47.438;19.026;2023-04-09T09:22:54;100608.47;;;7.39;100.00
54512;BME280;40419;47.438;19.026;2023-04-09T09:25:23;100608.63;;;7.45;100.00
54512;BME280;40419;47.438;19.026;2023-04-09T09:27:52;100599.59;;;7.63;97.18
54512;BME280;40419;47.438;19.026;2023-04-09T09:30:23;100597.69;;;7.47;99.40
54512;BME280;40419;47.438;19.026;2023-04-09T09:32:53;100597.63;;;7.90;98.52
54512;BME280;40419;47.438;19.026;2023-04-09T09:35:19;100593.91;;;7.99;99.97
54512;BME280;40419;47.438;19.026;2023-04-09T09:37:59;100589.00;;;8.19;94.70
54512;BME280;40419;47.438;19.026;2023-04-09T09:40:26;100596.06;;;7.95;95.05
54512;BME280;40419;47.438;19.026;2023-04-09T09:42:58;100594.41;;;8.03;90.52
54512;BME280;40419;47.438;19.026;2023-04-09T09:45:28;100596.41;;;7.59;98.24
54512;BME280;40419;47.438;19.026;2023-04-09T09:47:54;100589.66;;;7.55;98.12
54512;BME280;40419;47.438;19.026;2023-04-09T09:50:24;100592.47;;;7.45;94.19
54512;BME280;40419;47.438;19.026;2023-04-09T09:53:01;100596.47;;;7.25;93.55
54512;BME280;40419;47.438;19.026;2023-04-09T09:55:30;100583.25;;;7.56;96.79
54512;BME280;40419;47.438;19.026;2023-04-09T09:58:01;100592.41;;;7.88;96.09
54512;BME280;40419;47.438;19.026;2023-04-09T10:00:32;100578.75;;;7.90;97.70
54512;BME280;40419;47.438;19.026;2023-04-09T10:03:23;100585.47;;;8.19;94.60
54512;BME280;40419;47.438;19.026;2023-04-09T10:05:54;100594.75;;;8.32;93.50
54512;BME280;40419;47.438;19.026;2023-04-09T10:08:22;100588.84;;;8.04;92.86
54512;BME280;40419;47.438;19.026;2023-04-09T10:10:49;100589.34;;;7.99;95.48
54512;BME280;40419;47.438;19.026;2023-04-09T10:13:24;100591.56;;;7.96;98.52
54512;BME280;40419;47.438;19.026;2023-04-09T10:15:57;100590.19;;;8.16;97.59
54512;BME280;40419;47.438;19.026;2023-04-09T10:18:25;100592.03;;;7.83;92.39
54512;BME280;40419;47.438;19.026;2023-04-09T10:23:40;100592.69;;;7.77;92.44
54512;BME280;40419;47.438;19.026;2023-04-09T10:26:11;100602.81;;;7.83;95.77
54512;BME280;40419;47.438;19.026;2023-04-09T10:28:37;100591.03;;;7.84;95.77
54512;BME280;40419;47.438;19.026;2023-04-09T10:31:06;100589.66;;;7.63;92.29
54512;BME280;40419;47.438;19.026;2023-04-09T10:33:35;100591.19;;;7.83;94.71
54512;BME280;40419;47.438;19.026;2023-04-09T10:36:17;100588.47;;;7.66;93.19
54512;BME280;40419;47.438;19.026;2023-04-09T10:38:46;100587.47;;;8.16;94.04
54512;BME280;40419;47.438;19.026;2023-04-09T10:43:47;100580.09;;;8.19;95.78
54512;BME280;40419;47.438;19.026;2023-04-09T10:46:29;100585.13;;;8.30;93.08
54512;BME280;40419;47.438;19.026;2023-04-09T10:51:38;100590.53;;;8.55;93.56
54512;BME280;40419;47.438;19.026;2023-04-09T10:54:46;100580.13;;;8.91;93.99
54512;BME280;40419;47.438;19.026;2023-04-09T10:57:20;100583.75;;;8.59;89.38
54512;BME280;40419;47.438;19.026;2023-04-09T10:59:50;100590.88;;;8.10;87.49
54512;BME280;40419;47.438;19.026;2023-04-09T11:02:44;100579.91;;;8.20;91.53
54512;BME280;40419;47.438;19.026;2023-04-09T11:07:42;100579.72;;;8.46;89.17
54512;BME280;40419;47.438;19.026;2023-04-09T11:10:14;100581.56;;;8.62;90.35
54512;BME280;40419;47.438;19.026;2023-04-09T11:12:39;100576.31;;;8.69;87.64
54512;BME280;40419;47.438;19.026;2023-04-09T11:15:14;100579.72;;;8.30;87.84
54512;BME280;40419;47.438;19.026;2023-04-09T11:17:43;100580.91;;;8.36;86.92
54512;BME280;40419;47.438;19.026;2023-04-09T11:20:19;100576.88;;;8.48;86.62
54512;BME280;40419;47.438;19.026;2023-04-09T11:22:53;100569.25;;;8.43;87.27
54512;BME280;40419;47.438;19.026;2023-04-09T11:25:24;100568.38;;;8.76;87.63
54512;BME280;40419;47.438;19.026;2023-04-09T11:27:52;100573.25;;;8.72;87.70
54512;BME280;40419;47.438;19.026;2023-04-09T11:30:18;100571.63;;;8.55;88.91
54512;BME280;40419;47.438;19.026;2023-04-09T11:32:45;100567.69;;;8.82;88.76
54512;BME280;40419;47.438;19.026;2023-04-09T11:35:18;100567.56;;;8.42;86.75
54512;BME280;40419;47.438;19.026;2023-04-09T11:37:48;100574.00;;;8.41;85.88
54512;BME280;40419;47.438;19.026;2023-04-09T11:40:18;100569.63;;;8.48;89.59
54512;BME280;40419;47.438;19.026;2023-04-09T11:42:50;100572.16;;;8.25;85.45
54512;BME280;40419;47.438;19.026;2023-04-09T11:45:23;100570.63;;;8.14;89.05
54512;BME280;40419;47.438;19.026;2023-04-09T11:47:54;100571.25;;;8.74;88.70
54512;BME280;40419;47.438;19.026;2023-04-09T11:50:22;100565.88;;;9.05;85.43
54512;BME280;40419;47.438;19.026;2023-04-09T11:52:48;100571.78;;;9.09;90.54
54512;BME280;40419;47.438;19.026;2023-04-09T11:55:28;100562.44;;;8.80;87.02
54512;BME280;40419;47.438;19.026;2023-04-09T11:57:58;100576.66;;;8.74;85.21
54512;BME280;40419;47.438;19.026;2023-04-09T12:00:33;100577.47;;;8.75;85.95
54512;BME280;40419;47.438;19.026;2023-04-09T12:03:05;100571.63;;;8.55;88.94
54512;BME280;40419;47.438;19.026;2023-04-09T12:05:33;100571.50;;;8.96;86.77
54512;BME280;40419;47.438;19.026;2023-04-09T12:08:03;100565.22;;;9.03;87.72
54512;BME280;40419;47.438;19.026;2023-04-09T12:10:31;100573.72;;;9.23;85.25
54512;BME280;40419;47.438;19.026;2023-04-09T12:13:02;100566.69;;;9.14;86.97
54512;BME280;40419;47.438;19.026;2023-04-09T12:15:33;100566.16;;;8.79;85.60
54512;BME280;40419;47.438;19.026;2023-04-09T12:18:01;100566.19;;;8.71;87.45
54512;BME280;40419;47.438;19.026;2023-04-09T12:20:31;100562.69;;;9.02;84.18
54512;BME280;40419;47.438;19.026;2023-04-09T12:23:00;100571.25;;;8.74;82.77
54512;BME280;40419;47.438;19.026;2023-04-09T12:25:37;100564.06;;;8.98;86.07
54512;BME280;40419;47.438;19.026;2023-04-09T12:28:07;100561.94;;;8.85;88.04
54512;BME280;40419;47.438;19.026;2023-04-09T12:30:33;100561.63;;;9.11;88.49
54512;BME280;40419;47.438;19.026;2023-04-09T12:33:05;100566.03;;;9.44;88.10
54512;BME280;40419;47.438;19.026;2023-04-09T12:35:33;100551.38;;;9.07;83.19
54512;BME280;40419;47.438;19.026;2023-04-09T12:38:04;100553.97;;;8.92;86.83
54512;BME280;40419;47.438;19.026;2023-04-09T12:40:33;100550.19;;;8.61;87.99
54512;BME280;40419;47.438;19.026;2023-04-09T12:43:04;100551.13;;;8.85;88.66
54512;BME280;40419;47.438;19.026;2023-04-09T12:45:32;100541.09;;;8.62;89.35
54512;BME280;40419;47.438;19.026;2023-04-09T12:48:00;100555.44;;;8.46;87.27
54512;BME280;40419;47.438;19.026;2023-04-09T12:50:28;100545.66;;;8.54;90.54
54512;BME280;40419;47.438;19.026;2023-04-09T12:52:59;100543.38;;;8.74;89.80
54512;BME280;40419;47.438;19.026;2023-04-09T12:55:28;100540.69;;;8.82;90.17
54512;BME280;40419;47.438;19.026;2023-04-09T12:57:56;100545.84;;;9.00;89.00
54512;BME280;40419;47.438;19.026;2023-04-09T13:00:22;100544.38;;;8.81;83.13
54512;BME280;40419;47.438;19.026;2023-04-09T13:02:48;100544.16;;;8.91;85.14
54512;BME280;40419;47.438;19.026;2023-04-09T13:05:19;100537.13;;;8.81;82.71
54512;BME280;40419;47.438;19.026;2023-04-09T13:07:46;100541.84;;;8.79;86.16
54512;BME280;40419;47.438;19.026;2023-04-09T13:10:14;100538.03;;;9.05;84.08
54512;BME280;40419;47.438;19.026;2023-04-09T13:12:42;100538.09;;;8.97;80.65